Time;durP1;ratioP1;P1;durP2;ratioP2;P2;SDS_P1;SDS_P2;PMS_P1;PMS_P2;Temp;Humidity;BMP_temperature;BMP_pressure;BME280_temperature;BME280_humidity;BME280_pressure;Samples;Min_cycle;Max_cycle;Signal;HPM_P1;HPM_P2
2022/02/02 00:01:58;;;;;;;1.40;1.30;;;;;;;;;;5150782;27;20296;-85
2022/02/02 00:04:29;;;;;;;1.80;1.70;;;;;;;;;;5151094;27;20218;-85
2022/02/02 00:07:05;;;;;;;1.93;1.73;;;;;;;;;;5151031;27;20186;-85
2022/02/02 00:09:33;;;;;;;3.60;3.20;;;;;;;;;;5150682;27;20273;-84
2022/02/02 00:17:43;;;;;;;1.97;1.87;;;;;;;;;;5148411;27;20678;-84
2022/02/02 00:20:19;;;;;;;2.40;2.20;;;;;;;;;;5150754;27;20266;-84
2022/02/02 00:22:49;;;;;;;2.43;2.23;;;;;;;;;;5150368;27;20206;-84
2022/02/02 00:25:20;;;;;;;3.27;2.77;;;;;;;;;;5150790;27;20190;-84
2022/02/02 00:27:53;;;;;;;4.63;3.93;;;;;;;;;;5150227;27;20190;-84
2022/02/02 00:30:25;;;;;;;4.40;3.80;;;;;;;;;;5150519;27;20588;-84
2022/02/02 00:33:16;;;;;;;3.43;3.13;;;;;;;;;;5150459;27;20210;-84
2022/02/02 00:35:53;;;;;;;3.30;2.93;;;;;;;;;;5150138;27;20191;-84
2022/02/02 00:38:20;;;;;;;4.83;3.33;;;;;;;;;;5150322;27;20189;-84
2022/02/02 00:40:47;;;;;;;3.17;2.93;;;;;;;;;;5149916;27;20201;-84
2022/02/02 00:43:14;;;;;;;3.40;3.10;;;;;;;;;;5149637;27;20710;-84
2022/02/02 00:45:45;;;;;;;2.80;2.60;;;;;;;;;;5149542;27;20654;-84
2022/02/02 00:48:15;;;;;;;3.50;3.20;;;;;;;;;;5149888;27;20713;-84
2022/02/02 00:50:43;;;;;;;3.77;3.43;;;;;;;;;;5150151;27;20620;-84
2022/02/02 00:53:10;;;;;;;5.00;3.87;;;;;;;;;;5148583;27;20194;-84
2022/02/02 00:55:37;;;;;;;4.53;3.80;;;;;;;;;;5135852;27;20190;-83
2022/02/02 00:58:06;;;;;;;6.93;3.60;;;;;;;;;;5136113;27;20630;-84
2022/02/02 01:00:33;;;;;;;4.17;3.43;;;;;;;;;;5135695;27;20239;-83
2022/02/02 01:03:02;;;;;;;7.27;4.30;;;;;;;;;;5136012;27;20598;-84
2022/02/02 01:05:29;;;;;;;5.50;3.97;;;;;;;;;;5135604;27;20226;-84
2022/02/02 01:10:44;;;;;;;6.53;5.30;;;;;;;;;;5135504;27;20230;-84
2022/02/02 01:13:40;;;;;;;9.43;6.50;;;;;;;;;;5135594;27;20266;-84
2022/02/02 01:19:00;;;;;;;8.33;4.80;;;;;;;;;;5135323;27;20190;-84
2022/02/02 01:21:32;;;;;;;8.10;5.00;;;;;;;;;;5135709;27;20186;-84
2022/02/02 01:29:30;;;;;;;8.47;6.43;;;;;;;;;;5135811;27;20666;-84
2022/02/02 01:31:57;;;;;;;10.80;8.67;;;;;;;;;;5135102;27;20203;-83
2022/02/02 01:34:26;;;;;;;11.20;5.70;;;;;;;;;;5135494;27;20199;-84
2022/02/02 01:36:53;;;;;;;11.57;5.87;;;;;;;;;;5135052;27;20277;-84
2022/02/02 01:39:25;;;;;;;7.17;5.37;;;;;;;;;;5135008;27;20671;-84
2022/02/02 01:41:52;;;;;;;7.97;4.93;;;;;;;;;;5134749;27;20241;-84
2022/02/02 01:44:21;;;;;;;6.87;4.70;;;;;;;;;;5135569;27;20663;-84
2022/02/02 01:46:50;;;;;;;9.90;6.43;;;;;;;;;;5135184;27;20198;-84
2022/02/02 01:52:25;;;;;;;5.07;4.50;;;;;;;;;;5134974;27;20274;-84
2022/02/02 01:54:58;;;;;;;5.57;4.27;;;;;;;;;;5135162;27;20206;-83
2022/02/02 01:57:41;;;;;;;10.73;5.17;;;;;;;;;;5134773;27;20214;-84
2022/02/02 02:00:10;;;;;;;5.73;4.67;;;;;;;;;;5135752;27;20546;-84
2022/02/02 02:02:37;;;;;;;7.33;4.57;;;;;;;;;;5134535;27;20218;-84
2022/02/02 02:05:05;;;;;;;8.83;6.00;;;;;;;;;;5133907;27;20191;-84
2022/02/02 02:07:34;;;;;;;6.93;5.57;;;;;;;;;;5134147;27;20229;-84
2022/02/02 02:10:01;;;;;;;8.67;5.13;;;;;;;;;;5134683;27;20635;-83
2022/02/02 02:12:36;;;;;;;7.53;6.07;;;;;;;;;;5134357;27;20191;-84
2022/02/02 02:15:06;;;;;;;9.13;5.77;;;;;;;;;;5134310;27;20199;-84
2022/02/02 02:17:34;;;;;;;6.63;5.47;;;;;;;;;;5134600;27;20195;-84
2022/02/02 02:20:01;;;;;;;6.60;5.37;;;;;;;;;;5134387;27;20281;-84
2022/02/02 02:22:34;;;;;;;11.43;6.50;;;;;;;;;;5134079;27;20190;-84
2022/02/02 02:25:02;;;;;;;9.73;6.20;;;;;;;;;;5134169;27;20225;-84
2022/02/02 02:27:29;;;;;;;11.57;6.67;;;;;;;;;;5134377;27;20259;-84
2022/02/02 02:30:05;;;;;;;10.23;6.73;;;;;;;;;;5134318;27;20221;-84
2022/02/02 02:33:03;;;;;;;6.63;5.53;;;;;;;;;;5134099;27;20186;-84
2022/02/02 02:36:09;;;;;;;5.67;4.97;;;;;;;;;;5133983;27;20236;-84
2022/02/02 02:38:55;;;;;;;7.23;6.53;;;;;;;;;;5133750;27;20666;-83
2022/02/02 02:58:00;;;;;;;6.40;5.73;;;;;;;;;;5133908;27;20186;-83
2022/02/02 03:00:40;;;;;;;6.53;4.57;;;;;;;;;;5133713;27;20186;-84
2022/02/02 03:31:14;;;;;;;5.13;4.17;;;;;;;;;;5133237;27;20707;-83
2022/02/02 03:50:33;;;;;;;6.40;4.40;;;;;;;;;;5133140;28;20570;-84
2022/02/02 03:55:51;;;;;;;4.57;4.17;;;;;;;;;;5129111;27;20261;-84
2022/02/02 03:58:26;;;;;;;5.60;4.93;;;;;;;;;;5132833;27;20186;-83
2022/02/02 04:01:15;;;;;;;5.37;4.60;;;;;;;;;;5133096;28;20179;-84
2022/02/02 04:06:27;;;;;;;5.83;4.20;;;;;;;;;;5132732;27;20205;-84
2022/02/02 04:08:54;;;;;;;6.50;4.77;;;;;;;;;;5132726;28;20285;-83
2022/02/02 04:11:29;;;;;;;4.10;3.80;;;;;;;;;;5132686;28;20277;-83
2022/02/02 04:55:26;;;;;;;7.00;5.70;;;;;;;;;;5123859;27;20199;-84
2022/02/02 04:58:07;;;;;;;7.93;6.70;;;;;;;;;;5119101;27;20199;-83
2022/02/02 05:06:15;;;;;;;9.57;6.03;;;;;;;;;;5134569;27;20190;-84
2022/02/02 05:08:49;;;;;;;7.40;6.23;;;;;;;;;;5135117;27;20273;-83
2022/02/02 05:11:37;;;;;;;8.90;5.97;;;;;;;;;;5134764;27;20218;-83
2022/02/02 05:17:07;;;;;;;8.93;7.17;;;;;;;;;;5120078;27;20191;-83
2022/02/02 05:50:23;;;;;;;7.53;6.83;;;;;;;;;;5063527;28;20239;-83
2022/02/02 05:52:52;;;;;;;13.37;10.07;;;;;;;;;;5071458;28;20188;-83
2022/02/02 05:55:20;;;;;;;80.10;48.83;;;;;;;;;;5071433;28;20205;-83
2022/02/02 05:57:48;;;;;;;33.93;24.33;;;;;;;;;;5071595;28;20200;-83
2022/02/02 06:00:16;;;;;;;56.13;36.13;;;;;;;;;;5071418;28;20694;-84
2022/02/02 06:02:47;;;;;;;20.73;17.90;;;;;;;;;;5071261;28;20201;-83
2022/02/02 06:05:14;;;;;;;11.77;10.53;;;;;;;;;;5071432;28;20197;-83
2022/02/02 06:07:43;;;;;;;8.80;7.87;;;;;;;;;;5071185;28;20209;-83
2022/02/02 06:10:13;;;;;;;9.47;7.67;;;;;;;;;;5071086;28;20201;-83
2022/02/02 06:12:42;;;;;;;10.03;8.33;;;;;;;;;;5071152;28;20181;-83
2022/02/02 06:15:14;;;;;;;10.17;7.00;;;;;;;;;;5071040;28;20189;-83
2022/02/02 06:17:46;;;;;;;10.70;6.33;;;;;;;;;;5071007;28;20229;-83
2022/02/02 06:20:13;;;;;;;8.37;7.47;;;;;;;;;;5071042;28;20207;-83
2022/02/02 06:22:43;;;;;;;7.97;7.10;;;;;;;;;;5091697;27;20578;-83
2022/02/02 06:25:16;;;;;;;10.73;7.17;;;;;;;;;;5134321;27;20605;-83
2022/02/02 06:27:48;;;;;;;8.57;7.60;;;;;;;;;;5134356;27;20607;-84
2022/02/02 06:30:16;;;;;;;8.17;7.27;;;;;;;;;;5134098;27;20530;-83
2022/02/02 06:32:47;;;;;;;7.43;6.30;;;;;;;;;;5134308;27;20640;-83
2022/02/02 06:35:15;;;;;;;7.63;6.33;;;;;;;;;;5134303;27;20183;-83
2022/02/02 06:37:43;;;;;;;6.13;5.53;;;;;;;;;;5133898;27;20293;-83
2022/02/02 06:40:11;;;;;;;9.03;7.07;;;;;;;;;;5134092;27;20186;-83
2022/02/02 06:42:39;;;;;;;8.43;6.90;;;;;;;;;;5133690;27;20272;-83
2022/02/02 06:45:10;;;;;;;10.03;7.67;;;;;;;;;;5133658;27;20222;-83
2022/02/02 06:47:38;;;;;;;7.77;6.97;;;;;;;;;;5124193;27;20698;-83
2022/02/02 06:50:11;;;;;;;6.67;6.07;;;;;;;;;;5120306;27;20203;-83
2022/02/02 06:52:47;;;;;;;9.20;7.23;;;;;;;;;;5112696;28;20203;-83
2022/02/02 06:55:26;;;;;;;9.23;7.10;;;;;;;;;;5112998;28;20702;-83
2022/02/02 06:58:07;;;;;;;7.20;6.50;;;;;;;;;;5112847;28;20183;-83
2022/02/02 07:00:47;;;;;;;7.77;6.47;;;;;;;;;;5112932;28;20183;-84
2022/02/02 07:03:26;;;;;;;12.57;8.73;;;;;;;;;;5112858;28;20183;-83
2022/02/02 07:06:07;;;;;;;41.83;26.77;;;;;;;;;;5112793;28;20211;-84
2022/02/02 07:08:47;;;;;;;15.67;12.53;;;;;;;;;;5112775;28;20586;-83
2022/02/02 07:11:24;;;;;;;22.07;15.10;;;;;;;;;;5112693;28;20236;-83
2022/02/02 07:14:06;;;;;;;16.90;10.20;;;;;;;;;;5112712;28;20271;-83
2022/02/02 07:16:47;;;;;;;9.77;7.23;;;;;;;;;;5112979;28;20179;-83
2022/02/02 07:19:27;;;;;;;7.23;6.53;;;;;;;;;;5112816;28;20270;-83
2022/02/02 07:22:16;;;;;;;6.23;5.63;;;;;;;;;;5146161;27;20205;-84
2022/02/02 07:27:39;;;;;;;5.07;4.50;;;;;;;;;;5153913;27;20177;-84
2022/02/02 07:30:16;;;;;;;5.47;4.90;;;;;;;;;;5153819;27;20269;-84
2022/02/02 07:32:53;;;;;;;6.20;5.60;;;;;;;;;;5153747;27;20189;-84
2022/02/02 07:35:25;;;;;;;4.90;4.23;;;;;;;;;;5153686;27;20200;-84
2022/02/02 07:37:57;;;;;;;5.57;5.03;;;;;;;;;;5153880;27;20190;-84
2022/02/02 07:40:26;;;;;;;4.77;3.93;;;;;;;;;;5153920;27;20181;-84
2022/02/02 07:42:53;;;;;;;4.57;4.17;;;;;;;;;;5153583;27;20225;-84
2022/02/02 07:45:22;;;;;;;4.90;4.50;;;;;;;;;;5153499;27;20228;-84
2022/02/02 07:47:57;;;;;;;4.77;4.37;;;;;;;;;;5153562;27;20198;-84
2022/02/02 07:50:28;;;;;;;6.13;5.23;;;;;;;;;;5151607;27;20181;-83
2022/02/02 07:53:02;;;;;;;7.33;5.20;;;;;;;;;;5153142;27;20186;-84
2022/02/02 07:55:30;;;;;;;5.97;4.77;;;;;;;;;;5153545;27;20273;-84
2022/02/02 07:57:59;;;;;;;5.67;5.17;;;;;;;;;;5153477;27;20198;-85
2022/02/02 08:00:26;;;;;;;7.60;6.77;;;;;;;;;;5153703;27;20189;-84
2022/02/02 08:03:04;;;;;;;11.23;8.90;;;;;;;;;;5153447;27;20200;-84
2022/02/02 08:05:34;;;;;;;8.93;7.23;;;;;;;;;;5157085;27;20206;-85
2022/02/02 08:08:12;;;;;;;8.20;7.40;;;;;;;;;;5157709;27;20194;-85
2022/02/02 08:10:39;;;;;;;6.83;6.23;;;;;;;;;;5158153;27;20622;-85
2022/02/02 08:13:11;;;;;;;13.67;10.00;;;;;;;;;;5157842;27;20201;-85
2022/02/02 08:15:39;;;;;;;14.03;11.83;;;;;;;;;;5157639;27;20178;-85
2022/02/02 08:18:07;;;;;;;11.80;10.40;;;;;;;;;;5157444;27;20194;-85
2022/02/02 08:20:35;;;;;;;8.63;7.73;;;;;;;;;;5157644;27;20580;-85
2022/02/02 08:23:02;;;;;;;8.13;7.30;;;;;;;;;;5157331;27;20194;-85
2022/02/02 08:25:31;;;;;;;8.33;7.43;;;;;;;;;;5157217;27;20574;-85
2022/02/02 08:28:01;;;;;;;7.43;6.67;;;;;;;;;;5157292;27;20209;-85
2022/02/02 08:30:29;;;;;;;7.10;6.50;;;;;;;;;;5157409;27;20182;-85
2022/02/02 08:32:59;;;;;;;5.87;5.00;;;;;;;;;;5157284;27;20742;-85
2022/02/02 08:35:29;;;;;;;6.57;5.43;;;;;;;;;;5157247;27;20193;-85
2022/02/02 08:38:04;;;;;;;5.83;5.33;;;;;;;;;;5157058;27;20690;-86
2022/02/02 08:40:36;;;;;;;6.77;6.07;;;;;;;;;;5157170;27;20182;-86
2022/02/02 08:43:09;;;;;;;5.93;5.43;;;;;;;;;;5156917;27;20240;-86
2022/02/02 08:45:39;;;;;;;7.47;6.17;;;;;;;;;;5157166;27;20693;-85
2022/02/02 08:48:09;;;;;;;5.13;4.63;;;;;;;;;;5157234;27;20204;-86
2022/02/02 08:50:45;;;;;;;4.63;4.23;;;;;;;;;;5156857;27;20739;-83
2022/02/02 08:53:28;;;;;;;5.97;4.83;;;;;;;;;;5156832;27;20193;-85
2022/02/02 08:58:43;;;;;;;8.70;7.07;;;;;;;;;;5156580;27;20577;-86
2022/02/02 09:01:16;;;;;;;9.57;8.57;;;;;;;;;;5156923;27;20189;-86
2022/02/02 09:06:29;;;;;;;6.47;5.87;;;;;;;;;;5156942;27;20254;-86
2022/02/02 09:09:08;;;;;;;5.83;5.33;;;;;;;;;;5156819;27;20681;-86
2022/02/02 09:20:09;;;;;;;4.53;4.23;;;;;;;;;;5156726;27;20170;-86
2022/02/02 09:25:25;;;;;;;4.97;4.50;;;;;;;;;;5156345;27;20253;-86
2022/02/02 09:33:52;;;;;;;6.63;5.90;;;;;;;;;;5156435;27;20197;-86
2022/02/02 09:36:23;;;;;;;6.13;5.53;;;;;;;;;;5156117;27;20192;-86
2022/02/02 09:38:54;;;;;;;5.17;4.67;;;;;;;;;;5156166;27;20187;-86
2022/02/02 09:41:37;;;;;;;7.03;6.33;;;;;;;;;;5156365;27;20206;-86
2022/02/02 09:44:06;;;;;;;7.33;6.63;;;;;;;;;;5156012;27;20745;-86
2022/02/02 09:46:46;;;;;;;7.23;6.63;;;;;;;;;;5156075;27;20197;-87
2022/02/02 09:49:20;;;;;;;5.90;5.30;;;;;;;;;;5155928;27;20220;-86
2022/02/02 09:51:53;;;;;;;7.57;6.10;;;;;;;;;;5155898;27;20186;-87
2022/02/02 09:54:26;;;;;;;8.13;7.27;;;;;;;;;;5156279;27;20611;-87
2022/02/02 09:57:27;;;;;;;7.70;7.00;;;;;;;;;;5155766;27;20190;-87
2022/02/02 10:00:14;;;;;;;5.77;5.20;;;;;;;;;;5155578;27;20221;-86
2022/02/02 10:03:03;;;;;;;7.57;6.77;;;;;;;;;;5155734;27;20642;-87
2022/02/02 10:05:33;;;;;;;8.37;7.57;;;;;;;;;;5156033;27;20213;-86
2022/02/02 10:11:08;;;;;;;10.93;9.73;;;;;;;;;;5155163;27;20198;-87
2022/02/02 10:13:52;;;;;;;7.30;6.70;;;;;;;;;;5155923;27;20255;-87
2022/02/02 10:16:21;;;;;;;9.07;8.27;;;;;;;;;;5155759;27;20637;-86
2022/02/02 10:18:49;;;;;;;7.90;7.10;;;;;;;;;;5155486;27;20716;-86
2022/02/02 10:21:30;;;;;;;9.50;8.27;;;;;;;;;;5155373;27;20205;-86
2022/02/02 10:23:58;;;;;;;8.40;7.50;;;;;;;;;;5155438;27;20186;-87
2022/02/02 10:26:26;;;;;;;9.60;7.13;;;;;;;;;;5154634;27;20237;-87
2022/02/02 10:28:53;;;;;;;8.57;7.80;;;;;;;;;;5155324;27;20198;-87
2022/02/02 10:31:21;;;;;;;7.20;6.50;;;;;;;;;;5155323;27;20204;-87
2022/02/02 10:33:48;;;;;;;8.03;7.07;;;;;;;;;;5155339;27;20190;-87
2022/02/02 10:36:20;;;;;;;9.17;8.27;;;;;;;;;;5155415;27;20194;-87
2022/02/02 10:39:01;;;;;;;10.73;9.63;;;;;;;;;;5155592;27;20178;-87
2022/02/02 10:41:43;;;;;;;11.50;9.70;;;;;;;;;;5155275;27;20281;-87
2022/02/02 10:44:21;;;;;;;10.33;9.27;;;;;;;;;;5155207;27;20182;-87
2022/02/02 10:46:59;;;;;;;6.50;5.90;;;;;;;;;;5155041;27;20196;-87
2022/02/02 10:49:35;;;;;;;6.60;6.00;;;;;;;;;;5155135;27;20186;-87
2022/02/02 10:52:08;;;;;;;6.07;5.47;;;;;;;;;;5155213;27;20230;-87
2022/02/02 10:54:42;;;;;;;4.97;4.43;;;;;;;;;;5154896;27;20277;-87
2022/02/02 10:57:27;;;;;;;6.37;5.77;;;;;;;;;;5154859;27;20182;-87
2022/02/02 11:00:06;;;;;;;8.50;7.60;;;;;;;;;;5154810;27;20273;-87
2022/02/02 11:08:02;;;;;;;7.80;7.00;;;;;;;;;;5155071;27;20177;-87
2022/02/02 11:10:33;;;;;;;8.77;6.30;;;;;;;;;;5154784;27;20230;-87
2022/02/02 11:13:02;;;;;;;6.43;5.87;;;;;;;;;;5155051;27;20236;-87
2022/02/02 11:15:33;;;;;;;5.53;5.03;;;;;;;;;;5155163;27;20640;-87
2022/02/02 11:18:07;;;;;;;6.47;5.87;;;;;;;;;;5154419;27;20182;-87
2022/02/02 11:20:37;;;;;;;6.00;5.37;;;;;;;;;;5154459;27;20190;-87
2022/02/02 11:23:05;;;;;;;8.33;6.63;;;;;;;;;;5154641;27;20197;-87
2022/02/02 11:25:35;;;;;;;6.63;5.70;;;;;;;;;;5154352;27;20225;-87
2022/02/02 11:28:06;;;;;;;6.87;6.23;;;;;;;;;;5155082;27;20194;-87
2022/02/02 11:30:41;;;;;;;5.37;4.87;;;;;;;;;;5154650;27;20553;-87
2022/02/02 11:33:25;;;;;;;7.03;6.43;;;;;;;;;;5154111;27;20250;-86
2022/02/02 11:35:56;;;;;;;5.23;4.37;;;;;;;;;;5154455;27;20190;-87
2022/02/02 11:38:44;;;;;;;5.10;4.60;;;;;;;;;;5153945;27;20193;-87
2022/02/02 11:41:20;;;;;;;7.23;6.63;;;;;;;;;;5154067;27;20666;-87
2022/02/02 11:43:56;;;;;;;7.77;7.00;;;;;;;;;;5154041;27;20289;-86
2022/02/02 11:46:49;;;;;;;7.10;6.23;;;;;;;;;;5154036;27;20262;-87
2022/02/02 11:49:19;;;;;;;5.23;4.73;;;;;;;;;;5154167;27;20238;-87
2022/02/02 11:51:48;;;;;;;5.20;4.60;;;;;;;;;;5154259;27;20190;-87
2022/02/02 11:54:15;;;;;;;6.93;6.20;;;;;;;;;;5154354;27;20202;-87
2022/02/02 11:57:17;;;;;;;12.97;11.77;;;;;;;;;;5154385;27;20198;-87
2022/02/02 12:02:52;;;;;;;7.87;7.17;;;;;;;;;;5153850;27;20189;-87
2022/02/02 12:05:38;;;;;;;14.03;12.70;;;;;;;;;;5153806;27;20201;-87
2022/02/02 12:08:16;;;;;;;7.40;6.23;;;;;;;;;;5153922;27;20186;-86
2022/02/02 12:11:14;;;;;;;18.30;16.60;;;;;;;;;;5153860;27;20186;-87
2022/02/02 12:35:55;;;;;;;12.73;11.47;;;;;;;;;;5154343;27;20227;-87
2022/02/02 12:47:58;;;;;;;12.23;9.43;;;;;;;;;;5110402;28;20195;-86
2022/02/02 12:53:35;;;;;;;8.70;7.47;;;;;;;;;;5111946;28;20675;-87
2022/02/02 12:53:46;;;;;;;9.23;7.93;;;;;;;;;;5114113;28;20228;-86
2022/02/02 13:02:10;;;;;;;7.17;6.47;;;;;;;;;;5110925;28;20202;-86
2022/02/02 13:04:38;;;;;;;6.40;5.80;;;;;;;;;;5113829;28;20592;-86
2022/02/02 13:07:12;;;;;;;6.00;5.40;;;;;;;;;;5114934;28;20621;-86
2022/02/02 13:09:40;;;;;;;9.40;8.43;;;;;;;;;;5113620;28;20188;-86
2022/02/02 13:12:21;;;;;;;6.93;6.20;;;;;;;;;;5113524;28;20188;-87
2022/02/02 13:15:07;;;;;;;9.17;8.10;;;;;;;;;;5113487;28;20199;-86
2022/02/02 13:17:52;;;;;;;8.33;7.23;;;;;;;;;;5116464;27;20621;-86
2022/02/02 13:20:37;;;;;;;10.10;8.17;;;;;;;;;;5156934;27;20185;-86
2022/02/02 13:23:14;;;;;;;18.03;13.37;;;;;;;;;;5156552;27;20190;-86
2022/02/02 13:25:44;;;;;;;10.13;9.13;;;;;;;;;;5156483;27;20217;-86
2022/02/02 13:28:12;;;;;;;10.23;9.17;;;;;;;;;;5156605;27;20242;-86
2022/02/02 13:30:45;;;;;;;10.33;9.23;;;;;;;;;;5156438;27;20221;-86
2022/02/02 13:33:28;;;;;;;10.97;7.73;;;;;;;;;;5156396;27;20193;-86
2022/02/02 13:36:14;;;;;;;9.80;7.83;;;;;;;;;;5156216;27;20221;-86
2022/02/02 13:44:38;;;;;;;8.93;8.03;;;;;;;;;;5156159;27;20250;-86
2022/02/02 13:47:54;;;;;;;12.50;9.53;;;;;;;;;;5156009;27;20221;-85
2022/02/02 13:50:40;;;;;;;9.93;8.93;;;;;;;;;;5155846;27;20742;-85
2022/02/02 13:56:46;;;;;;;8.33;6.83;;;;;;;;;;5116037;27;20236;-85
2022/02/02 13:59:37;;;;;;;10.83;7.23;;;;;;;;;;5155497;27;20190;-85
2022/02/02 14:02:17;;;;;;;8.30;7.43;;;;;;;;;;5155733;27;20581;-85
2022/02/02 14:05:04;;;;;;;9.73;8.47;;;;;;;;;;5155500;27;20263;-85
2022/02/02 14:07:46;;;;;;;11.63;9.30;;;;;;;;;;5155387;27;20188;-85
2022/02/02 14:10:30;;;;;;;16.07;12.03;;;;;;;;;;5155660;27;20185;-85
2022/02/02 14:32:11;;;;;;;12.87;11.33;;;;;;;;;;5155004;27;20258;-86
2022/02/02 14:34:39;;;;;;;15.87;12.97;;;;;;;;;;5154846;27;20190;-86
2022/02/02 14:37:13;;;;;;;21.90;15.93;;;;;;;;;;5155083;27;20198;-86
2022/02/02 14:39:50;;;;;;;27.77;18.90;;;;;;;;;;5155109;27;20178;-86
2022/02/02 14:42:22;;;;;;;17.13;14.40;;;;;;;;;;5154548;27;20240;-86
2022/02/02 14:44:53;;;;;;;35.30;23.03;;;;;;;;;;5154739;27;20181;-86
2022/02/02 14:47:25;;;;;;;21.23;13.33;;;;;;;;;;5154697;27;20206;-86
2022/02/02 14:49:58;;;;;;;31.77;16.27;;;;;;;;;;5155499;27;20183;-85
2022/02/02 14:52:33;;;;;;;15.30;10.97;;;;;;;;;;5154794;27;20222;-86
2022/02/02 15:09:17;;;;;;;25.73;21.70;;;;;;;;;;5154200;27;20581;-86
2022/02/02 15:28:44;;;;;;;17.63;15.30;;;;;;;;;;5075127;28;20249;-86
2022/02/02 15:31:11;;;;;;;18.27;14.30;;;;;;;;;;5140105;27;20197;-86
2022/02/02 15:33:41;;;;;;;23.70;20.37;;;;;;;;;;5154283;27;20594;-86
2022/02/02 15:38:54;;;;;;;19.60;16.33;;;;;;;;;;5143066;27;20193;-86
2022/02/02 15:41:26;;;;;;;23.63;19.30;;;;;;;;;;5153927;27;20190;-86
2022/02/02 15:44:56;;;;;;;21.80;17.03;;;;;;;;;;5153767;27;20234;-86
2022/02/02 15:55:09;;;;;;;19.60;17.47;;;;;;;;;;5133085;28;20178;-86
2022/02/02 16:03:09;;;;;;;36.77;28.43;;;;;;;;;;5133006;28;20182;-86
2022/02/02 16:05:45;;;;;;;38.57;28.03;;;;;;;;;;5132694;28;20289;-86
2022/02/02 16:08:15;;;;;;;38.73;27.40;;;;;;;;;;5132967;28;20186;-86
2022/02/02 16:10:51;;;;;;;35.23;26.63;;;;;;;;;;5132722;28;20225;-86
2022/02/02 16:13:31;;;;;;;32.57;27.37;;;;;;;;;;5132866;28;20645;-87
2022/02/02 16:16:03;;;;;;;32.27;23.97;;;;;;;;;;5121078;28;20194;-83
2022/02/02 16:18:39;;;;;;;28.17;21.80;;;;;;;;;;5128713;27;20195;-83
2022/02/02 16:32:27;;;;;;;46.43;33.80;;;;;;;;;;5130179;27;20219;-83
2022/02/02 16:37:50;;;;;;;48.27;36.23;;;;;;;;;;5096177;27;20195;-83
2022/02/02 16:40:20;;;;;;;46.63;38.10;;;;;;;;;;5132318;27;20226;-83
2022/02/02 16:43:09;;;;;;;44.07;33.70;;;;;;;;;;5129694;27;20245;-83
2022/02/02 16:45:38;;;;;;;43.27;33.27;;;;;;;;;;5132874;27;20568;-83
2022/02/02 16:48:06;;;;;;;41.10;33.20;;;;;;;;;;5135986;27;20191;-83
2022/02/02 16:50:36;;;;;;;40.13;31.70;;;;;;;;;;5135917;27;20197;-83
2022/02/02 16:53:10;;;;;;;25.93;23.13;;;;;;;;;;5133318;27;20592;-83
2022/02/02 16:55:44;;;;;;;28.10;24.10;;;;;;;;;;5135896;27;20198;-83
2022/02/02 17:24:12;;;;;;;25.20;20.87;;;;;;;;;;5136006;27;20183;-83
2022/02/02 17:31:23;;;;;;;25.20;19.03;;;;;;;;;;5095842;27;20235;-83
2022/02/02 17:33:55;;;;;;;31.50;24.93;;;;;;;;;;5135216;27;20183;-83
2022/02/02 17:36:27;;;;;;;56.27;35.03;;;;;;;;;;5135170;27;20179;-83
2022/02/02 17:38:58;;;;;;;19.33;13.73;;;;;;;;;;5135230;27;20189;-83
2022/02/02 17:41:56;;;;;;;45.43;29.40;;;;;;;;;;5135213;27;20591;-83
2022/02/02 17:44:48;;;;;;;67.03;42.17;;;;;;;;;;5135262;27;20199;-83
2022/02/02 18:20:11;;;;;;;13.70;10.87;;;;;;;;;;5134373;27;20182;-83
2022/02/02 18:22:44;;;;;;;12.23;10.37;;;;;;;;;;5134235;27;20182;-82
2022/02/02 18:25:18;;;;;;;46.80;33.90;;;;;;;;;;5134505;27;20186;-83
2022/02/02 18:27:50;;;;;;;32.47;25.10;;;;;;;;;;5134071;27;20214;-83
2022/02/02 18:30:30;;;;;;;17.33;13.43;;;;;;;;;;5134076;27;20261;-83
2022/02/02 18:35:50;;;;;;;10.23;8.63;;;;;;;;;;5128503;27;20195;-83
2022/02/02 18:50:02;;;;;;;21.43;14.83;;;;;;;;;;5070557;28;20689;-83
2022/02/02 18:55:26;;;;;;;35.17;24.23;;;;;;;;;;5133803;27;20652;-83
2022/02/02 18:58:04;;;;;;;20.87;15.07;;;;;;;;;;5134022;27;20185;-83
2022/02/02 19:03:52;;;;;;;15.27;10.10;;;;;;;;;;5122596;27;20190;-82
2022/02/02 19:31:22;;;;;;;11.40;10.30;;;;;;;;;;5132000;27;20220;-83
2022/02/02 19:54:08;;;;;;;28.43;21.73;;;;;;;;;;5131902;28;20291;-82
2022/02/02 19:56:22;;;;;;;8.67;7.37;;;;;;;;;;5131276;27;20269;-82
2022/02/02 20:01:50;;;;;;;22.30;18.10;;;;;;;;;;5136056;27;20580;-82
2022/02/02 20:07:09;;;;;;;12.43;10.00;;;;;;;;;;5135648;27;20261;-82
2022/02/02 20:12:34;;;;;;;10.90;7.77;;;;;;;;;;5086670;27;20198;-82
2022/02/02 20:15:02;;;;;;;8.80;7.00;;;;;;;;;;5135714;27;20274;-82
2022/02/02 20:17:29;;;;;;;32.93;27.87;;;;;;;;;;5135674;27;20187;-82
2022/02/02 20:19:59;;;;;;;35.07;29.77;;;;;;;;;;5135536;27;20654;-82
2022/02/02 20:22:29;;;;;;;33.10;26.90;;;;;;;;;;5135466;27;20187;-82
2022/02/02 20:25:00;;;;;;;34.93;29.50;;;;;;;;;;5136043;27;20186;-83
2022/02/02 20:27:31;;;;;;;33.97;26.93;;;;;;;;;;5135375;27;20295;-83
2022/02/02 20:29:58;;;;;;;24.90;21.23;;;;;;;;;;5135512;27;20707;-82
2022/02/02 20:32:26;;;;;;;13.17;11.07;;;;;;;;;;5135641;27;20194;-82
2022/02/02 20:34:54;;;;;;;13.57;11.37;;;;;;;;;;5135276;27;20195;-82
2022/02/02 20:37:21;;;;;;;14.57;11.77;;;;;;;;;;5134814;27;20613;-82
2022/02/02 20:39:53;;;;;;;43.83;27.97;;;;;;;;;;5135123;27;20191;-82
2022/02/02 20:42:31;;;;;;;43.70;31.13;;;;;;;;;;5135066;27;20310;-81
2022/02/02 20:45:26;;;;;;;38.90;30.50;;;;;;;;;;5135437;27;20182;-82
2022/02/02 21:04:30;;;;;;;84.07;51.13;;;;;;;;;;5134326;27;20186;-82
2022/02/02 21:07:19;;;;;;;60.50;42.20;;;;;;;;;;5134590;27;20210;-82
2022/02/02 21:09:54;;;;;;;46.53;31.43;;;;;;;;;;5134545;27;20206;-82
2022/02/02 21:15:13;;;;;;;13.47;10.17;;;;;;;;;;5134364;27;20272;-82
2022/02/02 21:17:41;;;;;;;9.37;5.80;;;;;;;;;;5134442;27;20187;-82
2022/02/02 21:20:15;;;;;;;7.53;5.53;;;;;;;;;;5134367;27;20252;-82
2022/02/02 21:22:52;;;;;;;6.73;5.53;;;;;;;;;;5134434;27;20187;-81
2022/02/02 21:25:44;;;;;;;6.00;5.40;;;;;;;;;;5134277;27;20179;-82
2022/02/02 21:28:12;;;;;;;6.57;5.37;;;;;;;;;;5133890;27;20649;-82
2022/02/02 21:30:44;;;;;;;8.87;6.33;;;;;;;;;;5134146;27;20659;-82
2022/02/02 21:33:14;;;;;;;9.30;6.37;;;;;;;;;;5134221;27;20189;-83
2022/02/02 21:35:43;;;;;;;8.33;6.90;;;;;;;;;;5134200;27;20187;-82
2022/02/02 21:38:18;;;;;;;8.63;5.63;;;;;;;;;;5134354;27;20194;-82
2022/02/02 21:40:52;;;;;;;9.63;7.63;;;;;;;;;;5134104;27;20174;-82
2022/02/02 21:43:19;;;;;;;9.20;7.87;;;;;;;;;;5133742;27;20230;-82
2022/02/02 21:45:48;;;;;;;10.93;7.47;;;;;;;;;;5133867;27;20571;-82
2022/02/02 21:48:15;;;;;;;9.87;7.67;;;;;;;;;;5133820;27;20218;-82
2022/02/02 21:50:48;;;;;;;9.63;6.97;;;;;;;;;;5134129;27;20195;-81
2022/02/02 21:53:16;;;;;;;8.23;6.07;;;;;;;;;;5133795;27;20179;-82
2022/02/02 21:55:43;;;;;;;7.13;5.60;;;;;;;;;;5133416;27;20194;-82
2022/02/02 21:58:11;;;;;;;9.23;5.83;;;;;;;;;;5133611;27;20191;-82
2022/02/02 22:00:38;;;;;;;7.50;5.97;;;;;;;;;;5133570;27;20191;-82
2022/02/02 22:03:08;;;;;;;7.50;5.83;;;;;;;;;;5133617;27;20193;-82
2022/02/02 22:05:35;;;;;;;6.43;5.63;;;;;;;;;;5133590;27;20255;-82
2022/02/02 22:08:04;;;;;;;10.27;5.07;;;;;;;;;;5133082;27;20219;-82
2022/02/02 22:10:31;;;;;;;6.63;4.90;;;;;;;;;;5133481;27;20252;-82
2022/02/02 22:12:58;;;;;;;9.23;5.73;;;;;;;;;;5133388;27;20201;-82
2022/02/02 22:15:28;;;;;;;8.17;5.43;;;;;;;;;;5133469;27;20191;-82
2022/02/02 22:17:55;;;;;;;5.40;4.70;;;;;;;;;;5133397;27;20175;-82
2022/02/02 22:20:26;;;;;;;7.40;5.30;;;;;;;;;;5133016;27;20297;-82
2022/02/02 22:22:53;;;;;;;7.03;5.50;;;;;;;;;;5132518;27;20605;-83
2022/02/02 22:25:21;;;;;;;7.03;5.63;;;;;;;;;;5133220;27;20187;-82
2022/02/02 22:27:48;;;;;;;7.33;6.30;;;;;;;;;;5133011;27;20253;-82
2022/02/02 22:30:16;;;;;;;6.70;5.43;;;;;;;;;;5133073;27;20199;-82
2022/02/02 22:32:43;;;;;;;6.57;5.90;;;;;;;;;;5133404;27;20667;-82
2022/02/02 22:35:10;;;;;;;6.60;5.73;;;;;;;;;;5132999;27;20195;-82
2022/02/02 22:37:39;;;;;;;6.67;5.97;;;;;;;;;;5133724;27;20691;-82
2022/02/02 22:40:08;;;;;;;9.53;6.47;;;;;;;;;;5133986;27;20201;-82
2022/02/02 22:42:35;;;;;;;8.13;4.90;;;;;;;;;;5133644;27;20230;-82
2022/02/02 22:45:05;;;;;;;6.57;4.93;;;;;;;;;;5133917;27;20197;-82
2022/02/02 22:47:32;;;;;;;5.60;5.00;;;;;;;;;;5134025;27;20225;-82
2022/02/02 22:50:03;;;;;;;7.03;5.53;;;;;;;;;;5133833;27;20191;-82
2022/02/02 22:52:30;;;;;;;6.73;4.70;;;;;;;;;;5133729;27;20183;-83
2022/02/02 22:54:59;;;;;;;4.93;4.40;;;;;;;;;;5133974;27;20199;-82
2022/02/02 22:57:26;;;;;;;5.67;4.57;;;;;;;;;;5133547;27;20237;-82
2022/02/02 22:59:55;;;;;;;8.13;4.37;;;;;;;;;;5133550;27;20198;-82
2022/02/02 23:02:47;;;;;;;4.47;4.07;;;;;;;;;;5133778;27;20199;-82
2022/02/02 23:05:14;;;;;;;7.43;4.60;;;;;;;;;;5133852;27;20568;-82
2022/02/02 23:07:41;;;;;;;4.63;4.23;;;;;;;;;;5133666;27;20229;-82
2022/02/02 23:10:10;;;;;;;5.00;4.60;;;;;;;;;;5133420;27;20197;-82
2022/02/02 23:12:37;;;;;;;4.67;4.27;;;;;;;;;;5133618;27;20194;-82
2022/02/02 23:15:10;;;;;;;4.73;3.87;;;;;;;;;;5133416;27;20189;-82
2022/02/02 23:17:37;;;;;;;4.40;4.00;;;;;;;;;;5133383;27;20179;-82
2022/02/02 23:20:06;;;;;;;5.97;4.27;;;;;;;;;;5133215;27;20605;-83
2022/02/02 23:22:34;;;;;;;4.10;3.70;;;;;;;;;;5133553;27;20279;-82